createdAt,value
2023-05-04T00:02:38.444Z,8.40
2023-05-04T00:05:26.069Z,8.10
2023-05-04T00:08:12.011Z,8.23
2023-05-04T00:10:58.005Z,8.35
2023-05-04T00:13:44.030Z,8.07
2023-05-04T00:16:29.635Z,7.45
2023-05-04T00:19:15.697Z,8.68
2023-05-04T00:22:03.419Z,7.78
2023-05-04T00:24:48.872Z,7.50
2023-05-04T00:27:35.271Z,7.80
2023-05-04T00:30:21.100Z,7.88
2023-05-04T00:33:06.491Z,8.23
2023-05-04T00:35:52.097Z,8.23
2023-05-04T00:38:49.305Z,7.20
2023-05-04T00:41:35.501Z,7.43
2023-05-04T00:44:23.486Z,8.18
2023-05-04T00:47:09.539Z,7.30
2023-05-04T00:49:55.365Z,7.95
2023-05-04T00:52:42.031Z,7.63
2023-05-04T00:55:29.673Z,7.85
2023-05-04T00:58:15.489Z,7.55
2023-05-04T01:01:02.235Z,7.78
2023-05-04T01:03:48.966Z,7.75
2023-05-04T01:06:41.574Z,7.82
2023-05-04T01:09:35.713Z,7.07
2023-05-04T01:12:30.117Z,8.10
2023-05-04T01:15:16.208Z,7.20
2023-05-04T01:18:02.133Z,7.82
2023-05-04T01:20:47.878Z,8.25
2023-05-04T01:23:35.380Z,7.93
2023-05-04T01:26:27.622Z,7.80
2023-05-04T01:29:17.838Z,7.80
2023-05-04T01:32:04.294Z,7.20
2023-05-04T01:34:50.091Z,7.05
2023-05-04T01:37:37.265Z,7.90
2023-05-04T01:40:24.633Z,8.07
2023-05-04T01:43:10.347Z,7.65
2023-05-04T01:45:57.630Z,7.32
2023-05-04T01:48:43.283Z,7.78
2023-05-04T01:51:28.888Z,8.00
2023-05-04T01:54:16.053Z,7.63
2023-05-04T01:57:03.118Z,7.78
2023-05-04T01:59:49.108Z,7.95
2023-05-04T02:02:34.842Z,8.18
2023-05-04T02:05:20.701Z,7.70
2023-05-04T02:08:07.842Z,7.53
2023-05-04T02:10:53.962Z,7.95
2023-05-04T02:13:41.240Z,7.72
2023-05-04T02:16:26.814Z,7.15
2023-05-04T02:19:12.537Z,7.75
2023-05-04T02:21:58.524Z,8.57
2023-05-04T02:24:44.462Z,8.18
2023-05-04T02:27:30.310Z,7.68
2023-05-04T02:30:17.442Z,7.45
2023-05-04T02:33:03.426Z,8.25
2023-05-04T02:35:49.354Z,7.97
2023-05-04T02:38:34.947Z,8.07
2023-05-04T02:41:21.310Z,7.85
2023-05-04T02:44:07.047Z,7.82
2023-05-04T02:46:54.148Z,8.27
2023-05-04T02:49:41.179Z,8.25
2023-05-04T02:52:27.144Z,8.32
2023-05-04T02:55:13.067Z,7.80
2023-05-04T02:57:59.045Z,7.60
2023-05-04T03:00:44.997Z,7.28
2023-05-04T03:03:32.191Z,7.63
2023-05-04T03:06:18.237Z,7.82
2023-05-04T03:09:04.675Z,7.97
2023-05-04T03:11:50.424Z,7.50
2023-05-04T03:14:36.412Z,8.75
2023-05-04T03:17:22.436Z,8.18
2023-05-04T03:20:10.831Z,7.63
2023-05-04T03:22:56.753Z,8.20
2023-05-04T03:25:44.385Z,8.02
2023-05-04T03:28:29.956Z,7.78
2023-05-04T03:31:16.153Z,8.05
2023-05-04T03:34:02.264Z,7.43
2023-05-04T03:36:50.338Z,8.00
2023-05-04T03:39:36.071Z,7.80
2023-05-04T03:42:22.792Z,8.30
2023-05-04T03:45:09.474Z,8.05
2023-05-04T03:47:55.845Z,7.57
2023-05-04T03:50:41.744Z,7.32
2023-05-04T03:53:28.501Z,8.15
2023-05-04T03:56:13.981Z,8.20
2023-05-04T03:58:59.679Z,8.02
2023-05-04T04:01:49.223Z,8.20
2023-05-04T04:04:34.845Z,8.18
2023-05-04T04:07:20.942Z,7.50
2023-05-04T04:10:09.844Z,8.23
2023-05-04T04:12:55.473Z,8.63
2023-05-04T04:15:44.828Z,8.55
2023-05-04T04:18:30.698Z,8.07
2023-05-04T04:21:16.284Z,7.82
2023-05-04T04:24:01.957Z,7.30
2023-05-04T04:26:49.356Z,7.35
2023-05-04T04:29:35.642Z,8.05
2023-05-04T04:32:22.759Z,8.75
2023-05-04T04:35:09.228Z,7.72
2023-05-04T04:37:54.941Z,7.63
2023-05-04T04:40:40.987Z,7.47
2023-05-04T04:43:28.195Z,7.32
2023-05-04T04:46:13.888Z,7.30
2023-05-04T04:49:03.190Z,7.18
2023-05-04T04:51:49.301Z,7.65
2023-05-04T04:54:35.183Z,7.47
2023-05-04T04:57:21.058Z,6.70
2023-05-04T05:00:10.147Z,7.30
2023-05-04T05:02:56.476Z,6.85
2023-05-04T05:05:42.862Z,7.22
2023-05-04T05:08:29.166Z,7.07
2023-05-04T05:11:14.556Z,7.28
2023-05-04T05:14:00.384Z,7.20
2023-05-04T05:16:47.311Z,6.47
2023-05-04T05:19:37.216Z,6.80
2023-05-04T05:22:23.513Z,6.75
2023-05-04T05:25:11.331Z,6.60
2023-05-04T05:27:57.319Z,6.45
2023-05-04T05:30:43.021Z,6.50
2023-05-04T05:33:30.345Z,6.18
2023-05-04T05:36:15.926Z,6.68
2023-05-04T05:39:01.436Z,7.05
2023-05-04T05:41:47.608Z,6.75
2023-05-04T05:44:37.593Z,6.20
2023-05-04T05:47:23.631Z,6.57
2023-05-04T05:50:13.754Z,5.85
2023-05-04T05:52:59.408Z,6.13
2023-05-04T05:55:46.508Z,6.55
2023-05-04T05:58:32.417Z,6.40
2023-05-04T06:01:18.562Z,5.85
2023-05-04T06:04:04.356Z,6.72
2023-05-04T06:06:51.520Z,5.63
2023-05-04T06:09:37.115Z,5.43
2023-05-04T06:12:23.343Z,5.75
2023-05-04T06:15:09.956Z,5.78
2023-05-04T06:17:55.847Z,5.50
2023-05-04T06:20:41.661Z,5.43
2023-05-04T06:23:29.645Z,5.30
2023-05-04T06:26:15.394Z,5.43
2023-05-04T06:29:01.212Z,5.53
2023-05-04T06:31:48.364Z,5.10
2023-05-04T06:34:34.242Z,5.03
2023-05-04T06:37:20.100Z,5.00
2023-05-04T06:40:09.218Z,4.95
2023-05-04T06:42:54.972Z,5.07
2023-05-04T06:45:40.759Z,5.00
2023-05-04T06:48:27.385Z,5.10
2023-05-04T06:51:13.159Z,5.18
2023-05-04T06:54:01.032Z,5.68
2023-05-04T06:56:48.236Z,4.80
2023-05-04T06:59:33.896Z,5.25
2023-05-04T07:02:19.551Z,5.53
2023-05-04T07:05:06.200Z,5.57
2023-05-04T07:07:52.092Z,5.00
2023-05-04T07:10:38.286Z,4.80
2023-05-04T07:13:25.497Z,5.10
2023-05-04T07:16:11.326Z,4.85
2023-05-04T07:18:57.537Z,5.30
2023-05-04T07:21:43.009Z,5.25
2023-05-04T07:24:29.888Z,5.10
2023-05-04T07:27:15.900Z,5.05
2023-05-04T07:30:06.874Z,5.38
2023-05-04T07:35:38.629Z,5.20
2023-05-04T07:38:24.617Z,5.10
2023-05-04T07:41:10.426Z,5.18
2023-05-04T07:43:56.508Z,5.22
2023-05-04T07:46:43.740Z,4.85
2023-05-04T07:49:29.274Z,5.18
2023-05-04T07:52:15.194Z,5.47
2023-05-04T07:55:01.268Z,5.55
2023-05-04T07:57:47.415Z,4.55
2023-05-04T08:00:33.326Z,4.97
2023-05-04T08:03:20.860Z,5.15
2023-05-04T08:06:08.731Z,4.82
2023-05-04T08:08:55.120Z,5.10
2023-05-04T08:11:40.805Z,5.20
2023-05-04T08:14:26.476Z,4.25
2023-05-04T08:17:12.253Z,4.82
2023-05-04T08:19:59.824Z,4.75
2023-05-04T08:22:45.918Z,4.47
2023-05-04T08:25:31.558Z,4.72
2023-05-04T08:28:18.412Z,5.15
2023-05-04T08:31:04.114Z,5.45
2023-05-04T08:33:49.720Z,5.13
2023-05-04T08:36:36.617Z,5.55
2023-05-04T08:39:22.533Z,4.82
2023-05-04T08:42:08.408Z,4.90
2023-05-04T08:44:56.231Z,5.40
2023-05-04T08:47:43.583Z,5.18
2023-05-04T08:50:29.546Z,5.28
2023-05-04T08:53:21.435Z,5.30
2023-05-04T08:56:09.528Z,5.05
2023-05-04T08:59:01.633Z,5.43
2023-05-04T09:01:51.661Z,5.22
2023-05-04T09:04:37.502Z,5.65
2023-05-04T09:07:22.959Z,5.72
2023-05-04T09:10:10.921Z,5.47
2023-05-04T09:12:56.844Z,5.68
2023-05-04T09:15:42.393Z,5.45
2023-05-04T09:18:37.692Z,5.88
2023-05-04T09:21:29.929Z,5.90
2023-05-04T09:24:26.259Z,5.80
2023-05-04T09:27:17.912Z,5.90
2023-05-04T09:30:07.560Z,6.13
2023-05-04T09:32:53.617Z,5.28
2023-05-04T09:35:41.279Z,5.45
2023-05-04T09:38:27.466Z,5.32
2023-05-04T09:41:13.775Z,5.90
2023-05-04T09:44:00.874Z,5.25
2023-05-04T09:46:53.572Z,5.43
2023-05-04T09:49:39.858Z,4.93
2023-05-04T09:52:29.626Z,5.15
2023-05-04T09:55:16.543Z,5.13
2023-05-04T09:58:03.186Z,5.22
2023-05-04T10:00:50.744Z,5.70
2023-05-04T10:03:36.946Z,6.03
2023-05-04T10:06:23.923Z,5.32
2023-05-04T10:09:11.260Z,5.38
2023-05-04T10:12:00.571Z,5.22
2023-05-04T10:14:47.233Z,4.82
2023-05-04T10:17:50.688Z,5.13
2023-05-04T10:20:50.985Z,5.10
2023-05-04T10:24:00.170Z,5.93
2023-05-04T10:27:03.233Z,5.50
2023-05-04T10:29:50.796Z,5.35
2023-05-04T10:32:39.985Z,6.10
2023-05-04T10:35:27.933Z,5.35
2023-05-04T10:38:14.701Z,5.40
2023-05-04T10:41:00.758Z,5.65
2023-05-04T10:43:53.226Z,6.22
2023-05-04T10:46:41.105Z,5.85
2023-05-04T10:49:27.025Z,5.25
2023-05-04T10:52:18.291Z,5.07
2023-05-04T10:55:07.056Z,5.45
2023-05-04T10:57:54.598Z,5.25
2023-05-04T11:00:41.315Z,5.07
2023-05-04T11:03:37.792Z,5.70
2023-05-04T11:06:24.876Z,5.80
2023-05-04T11:09:13.699Z,5.50
2023-05-04T11:11:59.304Z,5.90
2023-05-04T11:14:45.093Z,5.10
2023-05-04T11:17:30.824Z,5.22
2023-05-04T11:20:23.465Z,5.50
2023-05-04T11:23:10.534Z,5.55
2023-05-04T11:25:57.574Z,5.38
2023-05-04T11:28:44.192Z,5.50
2023-05-04T11:31:30.001Z,5.70
2023-05-04T11:34:20.398Z,5.25
2023-05-04T11:37:06.524Z,5.67
2023-05-04T11:39:53.656Z,6.10
2023-05-04T11:42:42.730Z,5.40
2023-05-04T11:45:30.963Z,5.55
2023-05-04T11:48:18.702Z,5.38
2023-05-04T11:51:06.464Z,5.85
2023-05-04T11:53:53.569Z,6.45
2023-05-04T11:56:43.227Z,6.32
2023-05-04T11:59:31.581Z,6.00
2023-05-04T12:02:17.738Z,6.20
2023-05-04T12:05:05.335Z,6.32
2023-05-04T12:07:51.322Z,5.93
2023-05-04T12:10:37.002Z,5.82
2023-05-04T12:13:22.556Z,6.38
2023-05-04T12:16:11.485Z,6.47
2023-05-04T12:19:05.098Z,5.75
2023-05-04T12:21:52.406Z,7.10
2023-05-04T12:24:39.805Z,6.82
2023-05-04T12:27:26.251Z,6.43
2023-05-04T12:30:13.443Z,6.80
2023-05-04T12:33:00.696Z,6.72
2023-05-04T12:35:47.786Z,6.63
2023-05-04T12:38:34.005Z,6.60
2023-05-04T12:41:19.646Z,7.15
2023-05-04T12:44:05.602Z,6.85
2023-05-04T12:46:51.608Z,7.13
2023-05-04T12:49:38.817Z,7.10
2023-05-04T12:52:24.602Z,7.90
2023-05-04T12:55:10.388Z,7.53
2023-05-04T12:57:56.012Z,7.60
2023-05-04T13:00:42.574Z,7.53
2023-05-04T13:03:29.677Z,7.88
2023-05-04T13:06:17.000Z,7.75
2023-05-04T13:09:05.847Z,7.40
2023-05-04T13:11:51.881Z,7.95
2023-05-04T13:14:40.043Z,7.18
2023-05-04T13:17:27.525Z,8.00
2023-05-04T13:20:13.907Z,7.28
2023-05-04T13:23:00.798Z,7.68
2023-05-04T13:25:46.760Z,7.30
2023-05-04T13:28:32.366Z,7.65
2023-05-04T13:31:18.172Z,6.80
2023-05-04T13:34:04.388Z,7.18
2023-05-04T13:36:50.249Z,7.18
2023-05-04T13:39:41.656Z,7.60
2023-05-04T13:42:27.610Z,7.28
2023-05-04T13:45:13.766Z,7.60
2023-05-04T13:47:59.572Z,7.53
2023-05-04T13:50:46.018Z,7.68
2023-05-04T13:53:33.188Z,8.00
2023-05-04T13:56:25.680Z,7.45
2023-05-04T13:59:11.498Z,7.90
2023-05-04T14:01:57.479Z,7.25
2023-05-04T14:04:44.410Z,7.15
2023-05-04T14:07:31.308Z,8.45
2023-05-04T14:10:17.720Z,7.90
2023-05-04T14:13:05.201Z,8.43
2023-05-04T14:15:51.394Z,7.80
2023-05-04T14:18:37.206Z,8.00
2023-05-04T14:21:23.029Z,7.65
2023-05-04T14:24:09.304Z,7.93
2023-05-04T14:26:55.164Z,7.80
2023-05-04T14:29:42.291Z,8.25
2023-05-04T14:32:28.388Z,8.55
2023-05-04T14:35:15.747Z,8.25
2023-05-04T14:38:01.582Z,7.80
2023-05-04T14:40:49.515Z,7.80
2023-05-04T14:43:35.734Z,8.77
2023-05-04T14:46:22.915Z,9.05
2023-05-04T14:49:08.805Z,8.85
2023-05-04T14:51:54.452Z,8.63
2023-05-04T14:54:42.548Z,8.68
2023-05-04T14:57:28.070Z,8.82
2023-05-04T15:00:15.416Z,8.52
2023-05-04T15:03:02.893Z,9.00
2023-05-04T15:05:48.863Z,7.97
2023-05-04T15:08:35.486Z,8.40
2023-05-04T15:11:22.218Z,7.82
2023-05-04T15:14:08.179Z,8.40
2023-05-04T15:16:54.112Z,8.52
2023-05-04T15:19:41.549Z,9.00
2023-05-04T15:22:28.131Z,8.57
2023-05-04T15:25:14.158Z,9.43
2023-05-04T15:28:00.008Z,8.60
2023-05-04T15:30:46.266Z,8.95
2023-05-04T15:33:32.281Z,8.70
2023-05-04T15:36:19.144Z,9.07
2023-05-04T15:39:05.786Z,8.25
2023-05-04T15:41:51.540Z,7.63
2023-05-04T15:44:37.105Z,8.02
2023-05-04T15:47:23.039Z,7.43
2023-05-04T15:50:09.524Z,8.63
2023-05-04T15:52:56.775Z,7.85
2023-05-04T15:55:42.597Z,8.45
2023-05-04T15:58:28.209Z,9.25
2023-05-04T16:01:14.606Z,8.38
2023-05-04T16:04:00.606Z,8.35
2023-05-04T16:06:47.819Z,8.30
2023-05-04T16:09:34.884Z,8.63
2023-05-04T16:12:20.940Z,7.80
2023-05-04T16:15:07.506Z,8.20
2023-05-04T16:17:53.382Z,8.93
2023-05-04T16:20:39.589Z,8.40
2023-05-04T16:23:25.007Z,7.90
2023-05-04T16:26:12.343Z,8.35
2023-05-04T16:28:57.991Z,8.32
2023-05-04T16:31:46.975Z,8.63
2023-05-04T16:34:32.784Z,8.38
2023-05-04T16:37:18.936Z,7.97
2023-05-04T16:40:14.029Z,9.02
2023-05-04T16:43:01.468Z,9.15
2023-05-04T16:45:47.119Z,8.80
2023-05-04T16:48:32.877Z,8.90
2023-05-04T16:51:18.997Z,8.27
2023-05-04T16:54:04.726Z,8.38
2023-05-04T16:56:50.769Z,8.52
2023-05-04T16:59:37.852Z,9.15
2023-05-04T17:02:23.755Z,9.27
2023-05-04T17:05:10.512Z,9.10
2023-05-04T17:07:56.154Z,8.63
2023-05-04T17:10:42.106Z,8.43
2023-05-04T17:13:27.690Z,8.38
2023-05-04T17:16:15.098Z,7.97
2023-05-04T17:19:01.931Z,8.45
2023-05-04T17:21:47.734Z,8.40
2023-05-04T17:24:33.836Z,8.18
2023-05-04T17:27:19.920Z,8.40
2023-05-04T17:30:07.032Z,7.72
2023-05-04T17:32:56.994Z,8.45
2023-05-04T17:35:43.023Z,8.50
2023-05-04T17:38:28.622Z,7.55
2023-05-04T17:41:14.622Z,7.78
2023-05-04T17:44:00.909Z,7.18
2023-05-04T17:46:47.354Z,7.43
2023-05-04T17:49:34.402Z,7.32
2023-05-04T17:52:20.534Z,7.18
2023-05-04T17:55:07.216Z,7.38
2023-05-04T17:57:53.776Z,6.95
2023-05-04T18:00:39.822Z,7.32
2023-05-04T18:03:25.875Z,6.80
2023-05-04T18:06:13.159Z,6.80
2023-05-04T18:08:58.995Z,7.03
2023-05-04T18:11:44.655Z,6.82
2023-05-04T18:14:30.882Z,7.18
2023-05-04T18:17:16.764Z,7.28
2023-05-04T18:20:04.218Z,6.40
2023-05-04T18:22:51.825Z,6.55
2023-05-04T18:25:38.118Z,6.75
2023-05-04T18:28:24.164Z,6.60
2023-05-04T18:31:09.750Z,6.13
2023-05-04T18:33:56.663Z,6.43
2023-05-04T18:36:42.458Z,6.32
2023-05-04T18:39:29.796Z,5.97
2023-05-04T18:42:15.528Z,6.40
2023-05-04T18:45:01.669Z,5.82
2023-05-04T18:47:47.342Z,5.72
2023-05-04T18:50:33.298Z,6.05
2023-05-04T18:53:18.732Z,5.78
2023-05-04T18:56:07.656Z,5.72
2023-05-04T18:58:53.293Z,6.40
2023-05-04T19:01:39.201Z,6.00
2023-05-04T19:04:25.108Z,6.07
2023-05-04T19:07:10.776Z,5.95
2023-05-04T19:09:56.865Z,7.00
2023-05-04T19:12:44.431Z,6.05
2023-05-04T19:15:36.030Z,6.32
2023-05-04T19:18:22.155Z,5.72
2023-05-04T19:21:07.942Z,5.82
2023-05-04T19:23:54.161Z,6.30
2023-05-04T19:26:40.129Z,6.10
2023-05-04T19:29:27.253Z,5.47
2023-05-04T19:32:23.381Z,6.10
2023-05-04T19:35:10.453Z,6.75
2023-05-04T19:37:57.317Z,7.75
2023-05-04T19:40:43.250Z,9.30
2023-05-04T19:43:29.134Z,11.18
2023-05-04T19:46:16.537Z,8.80
2023-05-04T19:49:02.278Z,6.90
2023-05-04T19:51:48.703Z,6.13
2023-05-04T19:54:34.714Z,6.00
2023-05-04T19:57:21.205Z,6.70
2023-05-04T20:00:09.901Z,6.35
2023-05-04T20:03:04.980Z,6.97
2023-05-04T20:05:51.554Z,6.28
2023-05-04T20:08:37.279Z,7.20
2023-05-04T20:11:23.253Z,6.45
2023-05-04T20:14:09.037Z,6.20
2023-05-04T20:16:56.046Z,6.63
2023-05-04T20:19:43.674Z,7.45
2023-05-04T20:22:29.605Z,6.80
2023-05-04T20:25:15.593Z,6.25
2023-05-04T20:28:01.314Z,6.30
2023-05-04T20:30:47.036Z,6.70
2023-05-04T20:33:32.695Z,7.65
2023-05-04T20:36:20.107Z,6.57
2023-05-04T20:39:07.068Z,6.68
2023-05-04T20:41:53.093Z,6.53
2023-05-04T20:44:39.148Z,6.35
2023-05-04T20:47:25.431Z,5.55
2023-05-04T20:50:12.066Z,5.75
2023-05-04T20:53:01.292Z,6.28
2023-05-04T20:55:47.132Z,5.50
2023-05-04T20:58:32.908Z,6.00
2023-05-04T21:01:18.938Z,5.82
2023-05-04T21:04:05.048Z,5.30
2023-05-04T21:06:51.114Z,5.38
2023-05-04T21:09:38.251Z,4.88
2023-05-04T21:12:24.146Z,5.50
2023-05-04T21:15:11.378Z,5.53
2023-05-04T21:17:57.242Z,7.18
2023-05-04T21:20:43.119Z,5.00
2023-05-04T21:23:28.936Z,4.85
2023-05-04T21:26:15.890Z,5.25
2023-05-04T21:29:01.714Z,4.82
2023-05-04T21:31:50.777Z,5.07
2023-05-04T21:34:36.747Z,5.05
2023-05-04T21:37:22.546Z,5.00
2023-05-04T21:40:09.685Z,5.00
2023-05-04T21:42:57.161Z,5.30
2023-05-04T21:45:42.997Z,5.03
2023-05-04T21:48:29.974Z,5.35
2023-05-04T21:51:15.822Z,5.55
2023-05-04T21:54:02.125Z,5.03
2023-05-04T21:56:47.995Z,5.05
2023-05-04T21:59:34.986Z,5.22
2023-05-04T22:02:20.693Z,5.57
2023-05-04T22:05:06.779Z,5.80
2023-05-04T22:07:52.295Z,5.53
2023-05-04T22:10:38.468Z,5.78
2023-05-04T22:13:24.498Z,5.97
2023-05-04T22:16:11.519Z,5.55
2023-05-04T22:18:57.695Z,5.22
2023-05-04T22:21:43.181Z,5.70
2023-05-04T22:24:28.899Z,5.90
2023-05-04T22:27:14.565Z,5.63
2023-05-04T22:30:00.059Z,6.15
2023-05-04T22:32:47.492Z,5.75
2023-05-04T22:35:33.560Z,6.25
2023-05-04T22:38:19.016Z,6.28
2023-05-04T22:41:13.701Z,6.03
2023-05-04T22:43:59.708Z,6.28
2023-05-04T22:46:45.437Z,7.10
2023-05-04T22:49:32.932Z,6.00
2023-05-04T22:52:18.408Z,7.07
2023-05-04T22:55:04.892Z,6.75
2023-05-04T22:57:50.456Z,6.60
2023-05-04T23:00:36.151Z,6.43
2023-05-04T23:03:21.762Z,6.38
2023-05-04T23:06:09.370Z,6.65
2023-05-04T23:08:55.032Z,6.93
2023-05-04T23:11:40.937Z,7.10
2023-05-04T23:14:26.606Z,7.38
2023-05-04T23:17:12.189Z,7.78
2023-05-04T23:19:57.926Z,6.78
2023-05-04T23:22:45.002Z,7.18
2023-05-04T23:25:30.854Z,7.38
2023-05-04T23:28:16.502Z,7.22
2023-05-04T23:31:02.497Z,7.45
2023-05-04T23:33:48.236Z,7.65
2023-05-04T23:36:34.536Z,7.93
2023-05-04T23:39:22.055Z,7.53
2023-05-04T23:42:07.594Z,8.02
2023-05-04T23:44:54.599Z,7.82
2023-05-04T23:47:40.450Z,7.35
2023-05-04T23:50:26.036Z,7.22
2023-05-04T23:53:12.450Z,6.78
2023-05-04T23:56:15.490Z,7.30
2023-05-04T23:59:05.493Z,7.15
